sensor_id;sensor_type;location;lat;lon;timestamp;P1;durP1;ratioP1;P2;durP2;ratioP2
21771;SDS011;11047;47.904;8.110;2023-01-05T00:02:00;1.25;;;1.10;;
21771;SDS011;11047;47.904;8.110;2023-01-05T00:04:27;0.63;;;0.40;;
21771;SDS011;11047;47.904;8.110;2023-01-05T00:06:54;0.43;;;0.38;;
21771;SDS011;11047;47.904;8.110;2023-01-05T00:09:21;0.38;;;0.38;;
21771;SDS011;11047;47.904;8.110;2023-01-05T00:11:48;0.73;;;0.73;;
21771;SDS011;11047;47.904;8.110;2023-01-05T00:14:32;0.30;;;0.30;;
21771;SDS011;11047;47.904;8.110;2023-01-05T00:17:19;0.95;;;0.95;;
21771;SDS011;11047;47.904;8.110;2023-01-05T00:20:05;0.20;;;0.20;;
21771;SDS011;11047;47.904;8.110;2023-01-05T00:22:55;0.25;;;0.22;;
21771;SDS011;11047;47.904;8.110;2023-01-05T00:25:23;0.15;;;0.15;;
21771;SDS011;11047;47.904;8.110;2023-01-05T00:27:51;1.17;;;1.08;;
21771;SDS011;11047;47.904;8.110;2023-01-05T00:30:19;1.08;;;0.98;;
21771;SDS011;11047;47.904;8.110;2023-01-05T00:32:48;0.85;;;0.75;;
21771;SDS011;11047;47.904;8.110;2023-01-05T00:35:16;1.65;;;1.35;;
21771;SDS011;11047;47.904;8.110;2023-01-05T00:37:43;0.20;;;0.20;;
21771;SDS011;11047;47.904;8.110;2023-01-05T00:40:11;2.22;;;1.95;;
21771;SDS011;11047;47.904;8.110;2023-01-05T00:42:39;0.85;;;0.85;;
21771;SDS011;11047;47.904;8.110;2023-01-05T00:45:07;2.38;;;2.05;;
21771;SDS011;11047;47.904;8.110;2023-01-05T00:47:35;0.22;;;0.22;;
21771;SDS011;11047;47.904;8.110;2023-01-05T00:50:04;1.27;;;0.93;;
21771;SDS011;11047;47.904;8.110;2023-01-05T00:52:32;0.45;;;0.45;;
21771;SDS011;11047;47.904;8.110;2023-01-05T00:54:59;1.88;;;1.45;;
21771;SDS011;11047;47.904;8.110;2023-01-05T00:57:26;0.55;;;0.55;;
21771;SDS011;11047;47.904;8.110;2023-01-05T00:59:53;2.90;;;2.45;;
21771;SDS011;11047;47.904;8.110;2023-01-05T01:02:19;0.10;;;0.10;;
21771;SDS011;11047;47.904;8.110;2023-01-05T01:04:46;0.40;;;0.40;;
21771;SDS011;11047;47.904;8.110;2023-01-05T01:07:15;0.40;;;0.40;;
21771;SDS011;11047;47.904;8.110;2023-01-05T01:09:41;0.80;;;0.77;;
21771;SDS011;11047;47.904;8.110;2023-01-05T01:12:08;1.35;;;0.10;;
21771;SDS011;11047;47.904;8.110;2023-01-05T01:14:35;3.88;;;3.22;;
21771;SDS011;11047;47.904;8.110;2023-01-05T01:17:03;2.40;;;2.20;;
21771;SDS011;11047;47.904;8.110;2023-01-05T01:19:30;0.73;;;0.73;;
21771;SDS011;11047;47.904;8.110;2023-01-05T01:21:57;0.20;;;0.20;;
21771;SDS011;11047;47.904;8.110;2023-01-05T01:24:27;0.88;;;0.50;;
21771;SDS011;11047;47.904;8.110;2023-01-05T01:26:54;1.67;;;0.30;;
21771;SDS011;11047;47.904;8.110;2023-01-05T01:29:21;1.05;;;0.80;;
21771;SDS011;11047;47.904;8.110;2023-01-05T01:31:50;0.20;;;0.20;;
21771;SDS011;11047;47.904;8.110;2023-01-05T01:34:17;0.47;;;0.47;;
21771;SDS011;11047;47.904;8.110;2023-01-05T01:36:45;2.35;;;2.03;;
21771;SDS011;11047;47.904;8.110;2023-01-05T01:39:13;0.55;;;0.55;;
21771;SDS011;11047;47.904;8.110;2023-01-05T01:41:41;1.45;;;1.30;;
21771;SDS011;11047;47.904;8.110;2023-01-05T01:47:14;0.68;;;0.68;;
21771;SDS011;11047;47.904;8.110;2023-01-05T01:49:45;0.52;;;0.52;;
21771;SDS011;11047;47.904;8.110;2023-01-05T01:52:12;0.90;;;0.82;;
21771;SDS011;11047;47.904;8.110;2023-01-05T01:54:40;1.02;;;0.95;;
21771;SDS011;11047;47.904;8.110;2023-01-05T01:57:09;0.20;;;0.20;;
21771;SDS011;11047;47.904;8.110;2023-01-05T01:59:38;0.73;;;0.63;;
21771;SDS011;11047;47.904;8.110;2023-01-05T02:02:05;0.10;;;0.10;;
21771;SDS011;11047;47.904;8.110;2023-01-05T02:04:33;0.52;;;0.52;;
21771;SDS011;11047;47.904;8.110;2023-01-05T02:07:03;0.88;;;0.88;;
21771;SDS011;11047;47.904;8.110;2023-01-05T02:09:33;1.38;;;0.73;;
21771;SDS011;11047;47.904;8.110;2023-01-05T02:12:03;1.20;;;0.77;;
21771;SDS011;11047;47.904;8.110;2023-01-05T02:14:43;0.68;;;0.68;;
21771;SDS011;11047;47.904;8.110;2023-01-05T02:17:17;1.75;;;1.30;;
21771;SDS011;11047;47.904;8.110;2023-01-05T02:20:04;1.02;;;0.93;;
21771;SDS011;11047;47.904;8.110;2023-01-05T02:26:10;1.48;;;1.20;;
21771;SDS011;11047;47.904;8.110;2023-01-05T02:29:02;0.70;;;0.70;;
21771;SDS011;11047;47.904;8.110;2023-01-05T02:31:42;1.55;;;0.98;;
21771;SDS011;11047;47.904;8.110;2023-01-05T02:34:15;1.23;;;1.02;;
21771;SDS011;11047;47.904;8.110;2023-01-05T02:36:47;0.50;;;0.50;;
21771;SDS011;11047;47.904;8.110;2023-01-05T02:39:20;0.63;;;0.60;;
21771;SDS011;11047;47.904;8.110;2023-01-05T02:41:52;0.33;;;0.33;;
21771;SDS011;11047;47.904;8.110;2023-01-05T02:44:22;0.50;;;0.50;;
21771;SDS011;11047;47.904;8.110;2023-01-05T02:46:59;0.30;;;0.30;;
21771;SDS011;11047;47.904;8.110;2023-01-05T02:49:27;0.35;;;0.30;;
21771;SDS011;11047;47.904;8.110;2023-01-05T02:51:56;0.25;;;0.25;;
21771;SDS011;11047;47.904;8.110;2023-01-05T02:54:26;0.45;;;0.45;;
21771;SDS011;11047;47.904;8.110;2023-01-05T02:56:59;0.82;;;0.77;;
21771;SDS011;11047;47.904;8.110;2023-01-05T02:59:32;0.20;;;0.20;;
21771;SDS011;11047;47.904;8.110;2023-01-05T03:02:04;0.20;;;0.20;;
21771;SDS011;11047;47.904;8.110;2023-01-05T03:04:35;0.32;;;0.32;;
21771;SDS011;11047;47.904;8.110;2023-01-05T03:07:06;0.40;;;0.40;;
21771;SDS011;11047;47.904;8.110;2023-01-05T03:09:37;0.10;;;0.10;;
21771;SDS011;11047;47.904;8.110;2023-01-05T03:12:07;0.40;;;0.40;;
21771;SDS011;11047;47.904;8.110;2023-01-05T03:14:55;0.20;;;0.20;;
21771;SDS011;11047;47.904;8.110;2023-01-05T03:17:28;0.40;;;0.40;;
21771;SDS011;11047;47.904;8.110;2023-01-05T03:20:00;0.20;;;0.20;;
21771;SDS011;11047;47.904;8.110;2023-01-05T03:22:28;0.38;;;0.38;;
21771;SDS011;11047;47.904;8.110;2023-01-05T03:25:14;0.95;;;0.88;;
21771;SDS011;11047;47.904;8.110;2023-01-05T03:28:00;0.20;;;0.20;;
21771;SDS011;11047;47.904;8.110;2023-01-05T03:30:48;0.10;;;0.10;;
21771;SDS011;11047;47.904;8.110;2023-01-05T03:33:42;0.30;;;0.30;;
21771;SDS011;11047;47.904;8.110;2023-01-05T03:36:31;0.28;;;0.28;;
21771;SDS011;11047;47.904;8.110;2023-01-05T03:39:06;0.10;;;0.10;;
21771;SDS011;11047;47.904;8.110;2023-01-05T03:41:34;0.22;;;0.20;;
21771;SDS011;11047;47.904;8.110;2023-01-05T03:44:03;0.20;;;0.20;;
21771;SDS011;11047;47.904;8.110;2023-01-05T03:46:31;0.20;;;0.20;;
21771;SDS011;11047;47.904;8.110;2023-01-05T03:48:59;0.38;;;0.38;;
21771;SDS011;11047;47.904;8.110;2023-01-05T03:51:26;0.40;;;0.40;;
21771;SDS011;11047;47.904;8.110;2023-01-05T03:53:53;0.60;;;0.50;;
21771;SDS011;11047;47.904;8.110;2023-01-05T03:56:20;0.43;;;0.38;;
21771;SDS011;11047;47.904;8.110;2023-01-05T03:58:47;0.20;;;0.20;;
21771;SDS011;11047;47.904;8.110;2023-01-05T04:01:13;0.65;;;0.65;;
21771;SDS011;11047;47.904;8.110;2023-01-05T04:03:40;0.77;;;0.20;;
21771;SDS011;11047;47.904;8.110;2023-01-05T04:06:09;0.30;;;0.30;;
21771;SDS011;11047;47.904;8.110;2023-01-05T04:08:35;1.02;;;0.93;;
21771;SDS011;11047;47.904;8.110;2023-01-05T04:11:09;1.35;;;1.20;;
21771;SDS011;11047;47.904;8.110;2023-01-05T04:13:39;0.38;;;0.38;;
21771;SDS011;11047;47.904;8.110;2023-01-05T04:16:06;0.40;;;0.40;;
21771;SDS011;11047;47.904;8.110;2023-01-05T04:18:33;0.30;;;0.30;;
21771;SDS011;11047;47.904;8.110;2023-01-05T04:21:00;0.70;;;0.70;;
21771;SDS011;11047;47.904;8.110;2023-01-05T04:23:28;0.10;;;0.10;;
21771;SDS011;11047;47.904;8.110;2023-01-05T04:25:55;0.45;;;0.45;;
21771;SDS011;11047;47.904;8.110;2023-01-05T04:28:22;0.20;;;0.20;;
21771;SDS011;11047;47.904;8.110;2023-01-05T04:30:50;0.98;;;0.88;;
21771;SDS011;11047;47.904;8.110;2023-01-05T04:33:18;0.20;;;0.20;;
21771;SDS011;11047;47.904;8.110;2023-01-05T04:35:45;0.10;;;0.10;;
21771;SDS011;11047;47.904;8.110;2023-01-05T04:38:12;1.15;;;0.45;;
21771;SDS011;11047;47.904;8.110;2023-01-05T04:40:41;0.90;;;0.52;;
21771;SDS011;11047;47.904;8.110;2023-01-05T04:43:12;0.43;;;0.43;;
21771;SDS011;11047;47.904;8.110;2023-01-05T04:45:39;0.15;;;0.15;;
21771;SDS011;11047;47.904;8.110;2023-01-05T04:48:06;0.30;;;0.30;;
21771;SDS011;11047;47.904;8.110;2023-01-05T04:50:33;0.10;;;0.10;;
21771;SDS011;11047;47.904;8.110;2023-01-05T04:52:59;0.30;;;0.28;;
21771;SDS011;11047;47.904;8.110;2023-01-05T04:55:26;0.68;;;0.50;;
21771;SDS011;11047;47.904;8.110;2023-01-05T04:57:55;2.13;;;1.63;;
21771;SDS011;11047;47.904;8.110;2023-01-05T05:00:21;0.65;;;0.65;;
21771;SDS011;11047;47.904;8.110;2023-01-05T05:02:48;3.55;;;0.20;;
21771;SDS011;11047;47.904;8.110;2023-01-05T05:05:15;0.25;;;0.25;;
21771;SDS011;11047;47.904;8.110;2023-01-05T05:07:42;0.10;;;0.10;;
21771;SDS011;11047;47.904;8.110;2023-01-05T05:10:09;0.30;;;0.30;;
21771;SDS011;11047;47.904;8.110;2023-01-05T05:12:36;0.20;;;0.20;;
21771;SDS011;11047;47.904;8.110;2023-01-05T05:15:05;0.43;;;0.43;;
21771;SDS011;11047;47.904;8.110;2023-01-05T05:17:32;0.77;;;0.77;;
21771;SDS011;11047;47.904;8.110;2023-01-05T05:19:59;0.10;;;0.10;;
21771;SDS011;11047;47.904;8.110;2023-01-05T05:22:26;0.10;;;0.10;;
21771;SDS011;11047;47.904;8.110;2023-01-05T05:24:53;0.30;;;0.30;;
21771;SDS011;11047;47.904;8.110;2023-01-05T05:27:20;0.28;;;0.28;;
21771;SDS011;11047;47.904;8.110;2023-01-05T05:29:47;0.25;;;0.25;;
21771;SDS011;11047;47.904;8.110;2023-01-05T05:32:15;0.05;;;0.05;;
21771;SDS011;11047;47.904;8.110;2023-01-05T05:34:42;0.63;;;0.63;;
21771;SDS011;11047;47.904;8.110;2023-01-05T05:37:08;0.25;;;0.25;;
21771;SDS011;11047;47.904;8.110;2023-01-05T05:39:35;0.43;;;0.43;;
21771;SDS011;11047;47.904;8.110;2023-01-05T05:42:02;0.43;;;0.43;;
21771;SDS011;11047;47.904;8.110;2023-01-05T05:44:29;0.20;;;0.20;;
21771;SDS011;11047;47.904;8.110;2023-01-05T05:46:56;0.22;;;0.22;;
21771;SDS011;11047;47.904;8.110;2023-01-05T05:49:24;0.10;;;0.10;;
21771;SDS011;11047;47.904;8.110;2023-01-05T05:51:51;0.98;;;0.43;;
21771;SDS011;11047;47.904;8.110;2023-01-05T05:54:18;0.13;;;0.13;;
21771;SDS011;11047;47.904;8.110;2023-01-05T05:56:45;0.20;;;0.20;;
21771;SDS011;11047;47.904;8.110;2023-01-05T05:59:12;0.45;;;0.45;;
21771;SDS011;11047;47.904;8.110;2023-01-05T06:01:39;0.10;;;0.10;;
21771;SDS011;11047;47.904;8.110;2023-01-05T06:04:05;0.20;;;0.20;;
21771;SDS011;11047;47.904;8.110;2023-01-05T06:06:34;0.30;;;0.30;;
21771;SDS011;11047;47.904;8.110;2023-01-05T06:09:00;0.93;;;0.90;;
21771;SDS011;11047;47.904;8.110;2023-01-05T06:11:27;0.32;;;0.32;;
21771;SDS011;11047;47.904;8.110;2023-01-05T06:13:54;0.65;;;0.47;;
21771;SDS011;11047;47.904;8.110;2023-01-05T06:16:21;0.40;;;0.40;;
21771;SDS011;11047;47.904;8.110;2023-01-05T06:18:48;0.32;;;0.32;;
21771;SDS011;11047;47.904;8.110;2023-01-05T06:21:15;0.30;;;0.28;;
21771;SDS011;11047;47.904;8.110;2023-01-05T06:23:43;0.10;;;0.10;;
21771;SDS011;11047;47.904;8.110;2023-01-05T06:26:10;0.57;;;0.57;;
21771;SDS011;11047;47.904;8.110;2023-01-05T06:28:37;0.17;;;0.17;;
21771;SDS011;11047;47.904;8.110;2023-01-05T06:31:03;0.20;;;0.20;;
21771;SDS011;11047;47.904;8.110;2023-01-05T06:33:31;0.80;;;0.65;;
21771;SDS011;11047;47.904;8.110;2023-01-05T06:35:57;0.57;;;0.30;;
21771;SDS011;11047;47.904;8.110;2023-01-05T06:38:24;0.60;;;0.60;;
21771;SDS011;11047;47.904;8.110;2023-01-05T06:40:53;0.75;;;0.60;;
21771;SDS011;11047;47.904;8.110;2023-01-05T06:43:20;0.10;;;0.10;;
21771;SDS011;11047;47.904;8.110;2023-01-05T06:45:47;0.20;;;0.20;;
21771;SDS011;11047;47.904;8.110;2023-01-05T06:48:13;0.28;;;0.28;;
21771;SDS011;11047;47.904;8.110;2023-01-05T06:50:40;0.20;;;0.20;;
21771;SDS011;11047;47.904;8.110;2023-01-05T06:53:07;0.30;;;0.30;;
21771;SDS011;11047;47.904;8.110;2023-01-05T06:55:34;1.10;;;1.00;;
21771;SDS011;11047;47.904;8.110;2023-01-05T06:58:02;0.40;;;0.40;;
21771;SDS011;11047;47.904;8.110;2023-01-05T07:00:29;0.30;;;0.30;;
21771;SDS011;11047;47.904;8.110;2023-01-05T07:02:56;0.10;;;0.10;;
21771;SDS011;11047;47.904;8.110;2023-01-05T07:05:23;0.50;;;0.50;;
21771;SDS011;11047;47.904;8.110;2023-01-05T07:07:50;0.20;;;0.20;;
21771;SDS011;11047;47.904;8.110;2023-01-05T07:10:17;0.68;;;0.20;;
21771;SDS011;11047;47.904;8.110;2023-01-05T07:12:44;0.20;;;0.20;;
21771;SDS011;11047;47.904;8.110;2023-01-05T07:15:12;0.10;;;0.10;;
21771;SDS011;11047;47.904;8.110;2023-01-05T07:17:39;0.20;;;0.20;;
21771;SDS011;11047;47.904;8.110;2023-01-05T07:20:06;0.20;;;0.20;;
21771;SDS011;11047;47.904;8.110;2023-01-05T07:22:33;0.40;;;0.40;;
21771;SDS011;11047;47.904;8.110;2023-01-05T07:25:00;0.20;;;0.20;;
21771;SDS011;11047;47.904;8.110;2023-01-05T07:27:27;0.10;;;0.10;;
21771;SDS011;11047;47.904;8.110;2023-01-05T07:29:54;0.10;;;0.10;;
21771;SDS011;11047;47.904;8.110;2023-01-05T07:32:22;0.40;;;0.40;;
21771;SDS011;11047;47.904;8.110;2023-01-05T07:34:49;0.17;;;0.17;;
21771;SDS011;11047;47.904;8.110;2023-01-05T07:37:16;0.10;;;0.10;;
21771;SDS011;11047;47.904;8.110;2023-01-05T07:39:43;0.68;;;0.40;;
21771;SDS011;11047;47.904;8.110;2023-01-05T07:42:10;0.30;;;0.30;;
21771;SDS011;11047;47.904;8.110;2023-01-05T07:44:37;0.30;;;0.30;;
21771;SDS011;11047;47.904;8.110;2023-01-05T07:47:04;0.43;;;0.40;;
21771;SDS011;11047;47.904;8.110;2023-01-05T07:55:56;2.42;;;1.75;;
21771;SDS011;11047;47.904;8.110;2023-01-05T07:58:25;4.28;;;3.10;;
21771;SDS011;11047;47.904;8.110;2023-01-05T08:00:53;0.82;;;0.82;;
21771;SDS011;11047;47.904;8.110;2023-01-05T08:03:20;1.52;;;1.42;;
21771;SDS011;11047;47.904;8.110;2023-01-05T08:05:49;0.40;;;0.40;;
21771;SDS011;11047;47.904;8.110;2023-01-05T08:08:16;1.33;;;0.47;;
21771;SDS011;11047;47.904;8.110;2023-01-05T08:10:43;0.52;;;0.50;;
21771;SDS011;11047;47.904;8.110;2023-01-05T08:13:11;0.30;;;0.30;;
21771;SDS011;11047;47.904;8.110;2023-01-05T08:15:56;0.45;;;0.38;;
21771;SDS011;11047;47.904;8.110;2023-01-05T08:18:24;0.32;;;0.32;;
21771;SDS011;11047;47.904;8.110;2023-01-05T08:20:52;1.17;;;1.08;;
21771;SDS011;11047;47.904;8.110;2023-01-05T08:23:20;0.10;;;0.10;;
21771;SDS011;11047;47.904;8.110;2023-01-05T08:25:47;0.10;;;0.10;;
21771;SDS011;11047;47.904;8.110;2023-01-05T08:28:16;0.40;;;0.40;;
21771;SDS011;11047;47.904;8.110;2023-01-05T08:30:43;0.40;;;0.40;;
21771;SDS011;11047;47.904;8.110;2023-01-05T08:33:10;0.17;;;0.17;;
21771;SDS011;11047;47.904;8.110;2023-01-05T08:35:38;0.20;;;0.20;;
21771;SDS011;11047;47.904;8.110;2023-01-05T08:38:06;0.28;;;0.28;;
21771;SDS011;11047;47.904;8.110;2023-01-05T08:40:33;0.28;;;0.28;;
21771;SDS011;11047;47.904;8.110;2023-01-05T08:43:00;0.40;;;0.40;;
21771;SDS011;11047;47.904;8.110;2023-01-05T08:45:28;0.40;;;0.40;;
21771;SDS011;11047;47.904;8.110;2023-01-05T08:47:56;0.20;;;0.20;;
21771;SDS011;11047;47.904;8.110;2023-01-05T08:50:23;0.63;;;0.57;;
21771;SDS011;11047;47.904;8.110;2023-01-05T08:52:50;0.17;;;0.17;;
21771;SDS011;11047;47.904;8.110;2023-01-05T08:55:16;0.20;;;0.20;;
21771;SDS011;11047;47.904;8.110;2023-01-05T08:57:43;0.10;;;0.10;;
21771;SDS011;11047;47.904;8.110;2023-01-05T09:00:11;0.13;;;0.13;;
21771;SDS011;11047;47.904;8.110;2023-01-05T09:02:40;0.40;;;0.40;;
21771;SDS011;11047;47.904;8.110;2023-01-05T09:05:07;0.55;;;0.45;;
21771;SDS011;11047;47.904;8.110;2023-01-05T09:07:34;0.10;;;0.10;;
21771;SDS011;11047;47.904;8.110;2023-01-05T09:10:01;0.40;;;0.40;;
21771;SDS011;11047;47.904;8.110;2023-01-05T09:12:29;0.20;;;0.20;;
21771;SDS011;11047;47.904;8.110;2023-01-05T09:14:56;0.75;;;0.68;;
21771;SDS011;11047;47.904;8.110;2023-01-05T09:17:22;0.20;;;0.20;;
21771;SDS011;11047;47.904;8.110;2023-01-05T09:19:51;1.77;;;1.48;;
21771;SDS011;11047;47.904;8.110;2023-01-05T09:22:17;0.10;;;0.10;;
21771;SDS011;11047;47.904;8.110;2023-01-05T09:24:45;0.40;;;0.40;;
21771;SDS011;11047;47.904;8.110;2023-01-05T09:27:12;1.35;;;1.08;;
21771;SDS011;11047;47.904;8.110;2023-01-05T09:29:39;0.52;;;0.52;;
21771;SDS011;11047;47.904;8.110;2023-01-05T09:32:06;1.15;;;0.98;;
21771;SDS011;11047;47.904;8.110;2023-01-05T09:34:35;1.70;;;1.00;;
21771;SDS011;11047;47.904;8.110;2023-01-05T09:37:03;5.05;;;1.13;;
21771;SDS011;11047;47.904;8.110;2023-01-05T09:39:30;1.23;;;0.93;;
21771;SDS011;11047;47.904;8.110;2023-01-05T09:41:57;3.80;;;0.70;;
21771;SDS011;11047;47.904;8.110;2023-01-05T09:44:28;4.65;;;1.20;;
21771;SDS011;11047;47.904;8.110;2023-01-05T09:46:59;2.85;;;1.00;;
21771;SDS011;11047;47.904;8.110;2023-01-05T09:49:28;4.38;;;0.65;;
21771;SDS011;11047;47.904;8.110;2023-01-05T09:51:58;1.90;;;0.55;;
21771;SDS011;11047;47.904;8.110;2023-01-05T09:54:29;2.47;;;1.25;;
21771;SDS011;11047;47.904;8.110;2023-01-05T09:56:59;4.63;;;1.25;;
21771;SDS011;11047;47.904;8.110;2023-01-05T09:59:27;3.17;;;1.38;;
21771;SDS011;11047;47.904;8.110;2023-01-05T10:01:57;4.70;;;1.48;;
21771;SDS011;11047;47.904;8.110;2023-01-05T10:04:26;5.30;;;0.80;;
21771;SDS011;11047;47.904;8.110;2023-01-05T10:06:58;1.98;;;0.75;;
21771;SDS011;11047;47.904;8.110;2023-01-05T10:09:29;6.13;;;1.10;;
21771;SDS011;11047;47.904;8.110;2023-01-05T10:12:01;3.30;;;0.60;;
21771;SDS011;11047;47.904;8.110;2023-01-05T10:14:53;2.20;;;0.60;;
21771;SDS011;11047;47.904;8.110;2023-01-05T10:17:25;3.97;;;0.98;;
21771;SDS011;11047;47.904;8.110;2023-01-05T10:19:57;4.15;;;0.82;;
21771;SDS011;11047;47.904;8.110;2023-01-05T10:22:27;2.20;;;1.30;;
21771;SDS011;11047;47.904;8.110;2023-01-05T10:25:11;4.07;;;1.70;;
21771;SDS011;11047;47.904;8.110;2023-01-05T10:27:44;2.53;;;0.80;;
21771;SDS011;11047;47.904;8.110;2023-01-05T10:30:18;4.60;;;2.03;;
21771;SDS011;11047;47.904;8.110;2023-01-05T10:32:52;4.88;;;1.85;;
21771;SDS011;11047;47.904;8.110;2023-01-05T10:35:28;5.70;;;1.90;;
21771;SDS011;11047;47.904;8.110;2023-01-05T10:38:05;2.38;;;1.52;;
21771;SDS011;11047;47.904;8.110;2023-01-05T10:40:47;3.72;;;1.02;;
21771;SDS011;11047;47.904;8.110;2023-01-05T10:43:36;3.22;;;1.20;;
21771;SDS011;11047;47.904;8.110;2023-01-05T10:46:16;3.30;;;0.90;;
21771;SDS011;11047;47.904;8.110;2023-01-05T10:48:45;2.33;;;1.00;;
21771;SDS011;11047;47.904;8.110;2023-01-05T10:51:12;7.22;;;2.63;;
21771;SDS011;11047;47.904;8.110;2023-01-05T10:53:40;2.47;;;1.10;;
21771;SDS011;11047;47.904;8.110;2023-01-05T10:56:11;2.15;;;1.15;;
21771;SDS011;11047;47.904;8.110;2023-01-05T10:58:40;2.92;;;1.48;;
21771;SDS011;11047;47.904;8.110;2023-01-05T11:01:17;3.67;;;1.10;;
21771;SDS011;11047;47.904;8.110;2023-01-05T11:03:48;2.88;;;0.70;;
21771;SDS011;11047;47.904;8.110;2023-01-05T11:06:19;2.72;;;1.42;;
21771;SDS011;11047;47.904;8.110;2023-01-05T11:08:47;3.13;;;1.40;;
21771;SDS011;11047;47.904;8.110;2023-01-05T11:11:20;1.90;;;0.88;;
21771;SDS011;11047;47.904;8.110;2023-01-05T11:13:51;2.65;;;1.05;;
21771;SDS011;11047;47.904;8.110;2023-01-05T11:16:21;4.63;;;1.83;;
21771;SDS011;11047;47.904;8.110;2023-01-05T11:18:51;1.70;;;1.45;;
21771;SDS011;11047;47.904;8.110;2023-01-05T11:21:19;2.25;;;0.70;;
21771;SDS011;11047;47.904;8.110;2023-01-05T11:23:47;1.33;;;0.70;;
21771;SDS011;11047;47.904;8.110;2023-01-05T11:26:21;3.50;;;1.58;;
21771;SDS011;11047;47.904;8.110;2023-01-05T11:29:08;1.60;;;1.02;;
21771;SDS011;11047;47.904;8.110;2023-01-05T11:31:39;1.85;;;0.63;;
21771;SDS011;11047;47.904;8.110;2023-01-05T11:34:13;1.23;;;0.55;;
21771;SDS011;11047;47.904;8.110;2023-01-05T11:36:51;1.23;;;0.50;;
21771;SDS011;11047;47.904;8.110;2023-01-05T11:39:22;0.90;;;0.40;;
21771;SDS011;11047;47.904;8.110;2023-01-05T11:42:05;1.40;;;0.50;;
21771;SDS011;11047;47.904;8.110;2023-01-05T11:44:33;2.90;;;1.38;;
21771;SDS011;11047;47.904;8.110;2023-01-05T11:47:02;0.63;;;0.30;;
21771;SDS011;11047;47.904;8.110;2023-01-05T11:49:30;2.08;;;0.40;;
21771;SDS011;11047;47.904;8.110;2023-01-05T11:51:58;1.98;;;0.38;;
21771;SDS011;11047;47.904;8.110;2023-01-05T11:54:27;1.25;;;0.20;;
21771;SDS011;11047;47.904;8.110;2023-01-05T11:57:15;0.20;;;0.20;;
21771;SDS011;11047;47.904;8.110;2023-01-05T11:59:43;1.20;;;0.28;;
21771;SDS011;11047;47.904;8.110;2023-01-05T12:02:24;0.57;;;0.30;;
21771;SDS011;11047;47.904;8.110;2023-01-05T12:05:14;0.30;;;0.30;;
21771;SDS011;11047;47.904;8.110;2023-01-05T12:07:51;0.65;;;0.40;;
21771;SDS011;11047;47.904;8.110;2023-01-05T12:13:31;0.65;;;0.20;;
21771;SDS011;11047;47.904;8.110;2023-01-05T12:16:32;0.65;;;0.65;;
21771;SDS011;11047;47.904;8.110;2023-01-05T12:19:16;0.50;;;0.50;;
21771;SDS011;11047;47.904;8.110;2023-01-05T12:21:56;0.70;;;0.40;;
21771;SDS011;11047;47.904;8.110;2023-01-05T12:24:43;0.25;;;0.25;;
21771;SDS011;11047;47.904;8.110;2023-01-05T12:27:31;1.25;;;0.40;;
21771;SDS011;11047;47.904;8.110;2023-01-05T12:30:18;0.40;;;0.40;;
21771;SDS011;11047;47.904;8.110;2023-01-05T12:32:55;0.38;;;0.38;;
21771;SDS011;11047;47.904;8.110;2023-01-05T12:38:26;0.20;;;0.20;;
21771;SDS011;11047;47.904;8.110;2023-01-05T12:41:06;0.88;;;0.40;;
21771;SDS011;11047;47.904;8.110;2023-01-05T12:43:52;0.20;;;0.20;;
21771;SDS011;11047;47.904;8.110;2023-01-05T12:46:35;0.22;;;0.22;;
21771;SDS011;11047;47.904;8.110;2023-01-05T12:49:15;0.20;;;0.20;;
21771;SDS011;11047;47.904;8.110;2023-01-05T12:51:47;0.25;;;0.20;;
21771;SDS011;11047;47.904;8.110;2023-01-05T12:54:21;0.93;;;0.17;;
21771;SDS011;11047;47.904;8.110;2023-01-05T12:56:56;0.70;;;0.10;;
21771;SDS011;11047;47.904;8.110;2023-01-05T12:59:27;0.57;;;0.30;;
21771;SDS011;11047;47.904;8.110;2023-01-05T13:02:01;0.32;;;0.28;;
21771;SDS011;11047;47.904;8.110;2023-01-05T13:04:37;0.20;;;0.20;;
21771;SDS011;11047;47.904;8.110;2023-01-05T13:07:08;1.15;;;0.63;;
21771;SDS011;11047;47.904;8.110;2023-01-05T13:09:40;0.20;;;0.20;;
21771;SDS011;11047;47.904;8.110;2023-01-05T13:12:09;0.40;;;0.40;;
21771;SDS011;11047;47.904;8.110;2023-01-05T13:14:40;0.32;;;0.32;;
21771;SDS011;11047;47.904;8.110;2023-01-05T13:17:21;1.13;;;0.32;;
21771;SDS011;11047;47.904;8.110;2023-01-05T13:19:52;0.30;;;0.30;;
21771;SDS011;11047;47.904;8.110;2023-01-05T13:22:28;0.20;;;0.20;;
21771;SDS011;11047;47.904;8.110;2023-01-05T13:24:59;0.10;;;0.10;;
21771;SDS011;11047;47.904;8.110;2023-01-05T13:27:29;0.25;;;0.25;;
21771;SDS011;11047;47.904;8.110;2023-01-05T13:29:57;1.05;;;0.30;;
21771;SDS011;11047;47.904;8.110;2023-01-05T13:32:36;0.25;;;0.25;;
21771;SDS011;11047;47.904;8.110;2023-01-05T13:35:18;0.40;;;0.40;;
21771;SDS011;11047;47.904;8.110;2023-01-05T13:38:04;0.52;;;0.52;;
21771;SDS011;11047;47.904;8.110;2023-01-05T13:40:51;1.02;;;0.93;;
21771;SDS011;11047;47.904;8.110;2023-01-05T13:43:36;0.40;;;0.40;;
21771;SDS011;11047;47.904;8.110;2023-01-05T13:46:25;0.20;;;0.20;;
21771;SDS011;11047;47.904;8.110;2023-01-05T13:49:09;0.55;;;0.50;;
21771;SDS011;11047;47.904;8.110;2023-01-05T13:51:55;1.10;;;0.95;;
21771;SDS011;11047;47.904;8.110;2023-01-05T13:54:28;0.30;;;0.30;;
21771;SDS011;11047;47.904;8.110;2023-01-05T13:57:04;0.50;;;0.50;;
21771;SDS011;11047;47.904;8.110;2023-01-05T13:59:33;1.02;;;0.40;;
21771;SDS011;11047;47.904;8.110;2023-01-05T14:02:02;0.93;;;0.65;;
21771;SDS011;11047;47.904;8.110;2023-01-05T14:04:32;0.38;;;0.38;;
21771;SDS011;11047;47.904;8.110;2023-01-05T14:07:01;0.20;;;0.20;;
21771;SDS011;11047;47.904;8.110;2023-01-05T14:09:31;1.48;;;0.20;;
21771;SDS011;11047;47.904;8.110;2023-01-05T14:15:02;0.40;;;0.20;;
21771;SDS011;11047;47.904;8.110;2023-01-05T14:17:51;0.20;;;0.20;;
21771;SDS011;11047;47.904;8.110;2023-01-05T14:20:30;0.17;;;0.17;;
21771;SDS011;11047;47.904;8.110;2023-01-05T14:23:00;1.23;;;0.20;;
21771;SDS011;11047;47.904;8.110;2023-01-05T14:28:20;0.38;;;0.20;;
21771;SDS011;11047;47.904;8.110;2023-01-05T14:34:00;0.22;;;0.22;;
21771;SDS011;11047;47.904;8.110;2023-01-05T14:36:33;0.28;;;0.28;;
21771;SDS011;11047;47.904;8.110;2023-01-05T14:39:04;0.50;;;0.40;;
21771;SDS011;11047;47.904;8.110;2023-01-05T14:41:32;0.68;;;0.35;;
21771;SDS011;11047;47.904;8.110;2023-01-05T14:44:00;0.60;;;0.60;;
21771;SDS011;11047;47.904;8.110;2023-01-05T14:46:41;0.40;;;0.40;;
21771;SDS011;11047;47.904;8.110;2023-01-05T14:49:15;0.20;;;0.20;;
21771;SDS011;11047;47.904;8.110;2023-01-05T14:51:52;0.55;;;0.30;;
21771;SDS011;11047;47.904;8.110;2023-01-05T14:54:33;0.60;;;0.45;;
21771;SDS011;11047;47.904;8.110;2023-01-05T14:57:19;0.80;;;0.60;;
21771;SDS011;11047;47.904;8.110;2023-01-05T14:59:47;2.30;;;1.75;;
21771;SDS011;11047;47.904;8.110;2023-01-05T15:02:16;2.47;;;1.63;;
21771;SDS011;11047;47.904;8.110;2023-01-05T15:04:47;2.67;;;1.23;;
21771;SDS011;11047;47.904;8.110;2023-01-05T15:07:22;2.25;;;0.82;;
21771;SDS011;11047;47.904;8.110;2023-01-05T15:10:05;0.65;;;0.50;;
21771;SDS011;11047;47.904;8.110;2023-01-05T15:12:51;0.93;;;0.55;;
21771;SDS011;11047;47.904;8.110;2023-01-05T15:15:41;0.30;;;0.30;;
21771;SDS011;11047;47.904;8.110;2023-01-05T15:24:18;0.30;;;0.30;;
21771;SDS011;11047;47.904;8.110;2023-01-05T15:27:21;0.43;;;0.30;;
21771;SDS011;11047;47.904;8.110;2023-01-05T15:30:14;0.70;;;0.45;;
21771;SDS011;11047;47.904;8.110;2023-01-05T15:33:17;0.95;;;0.70;;
21771;SDS011;11047;47.904;8.110;2023-01-05T15:35:53;1.08;;;0.60;;
21771;SDS011;11047;47.904;8.110;2023-01-05T15:38:26;1.23;;;0.55;;
21771;SDS011;11047;47.904;8.110;2023-01-05T15:40:58;1.48;;;0.73;;
21771;SDS011;11047;47.904;8.110;2023-01-05T15:43:30;1.13;;;0.77;;
21771;SDS011;11047;47.904;8.110;2023-01-05T15:45:58;2.88;;;2.20;;
21771;SDS011;11047;47.904;8.110;2023-01-05T15:48:26;2.75;;;1.70;;